Data for 08/17/2007

Time Sea-Level Adjusted Pressure Absolute Pressure Temperature Relative Humidity Dew Point   
(mb) (inHg) (mb) (inHg) (C) (F) (%) (C) (F)
00:05 1019 30.09 848 25.04 18.8 65.9 59 10.7 51.3
00:10 1019 30.09 848 25.04 18.8 65.8 61 11.3 52.3
00:15 1019 30.09 848 25.04 18.5 65.4 61 11 51.8
00:20 1019 30.09 848 25.04 18.6 65.4 60 10.9 51.5
00:25 1019 30.09 848 25.04 18.6 65.4 60 10.8 51.5
00:30 1019 30.09 848 25.04 18.6 65.4 60 10.7 51.2
00:35 1019 30.09 848 25.04 18.7 65.6 58 10.5 50.9
00:40 1019 30.09 848 25.04 18.8 65.8 58 10.4 50.7
00:45 1019 30.09 848 25.04 18.8 65.8 58 10.4 50.8
00:50 1019 30.09 848 25.04 18.8 65.9 57 10.3 50.6
00:55 1019 30.09 848 25.04 19.3 66.7 52 9.3 48.7
01:00 1019 30.09 848 25.04 19.6 67.3 52 9.7 49.4
01:05 1019 30.09 848 25.04 19.5 67 54 9.9 49.9
01:10 1019 30.09 848 25.04 19.3 66.7 53 9.7 49.5
01:15 1019 30.09 848 25.04 19.3 66.8 54 9.9 49.8
01:20 1019 30.09 848 25.04 19.2 66.5 54 9.9 49.7
01:25 1019 30.09 848 25.04 19.3 66.7 53 9.6 49.3
01:30 1019 30.09 848 25.04 19.4 66.9 52 9.5 49.1
01:35 1019 30.09 848 25.04 19.6 67.2 51 9.4 49
01:40 1019 30.09 848 25.04 19.6 67.3 52 9.5 49.1
01:45 1018 30.06 848 25.04 19.7 67.5 51 9.4 49
01:50 1018 30.06 848 25.04 19.7 67.5 51 9.4 48.9
01:55 1018 30.06 848 25.04 19.8 67.7 51 9.5 49
02:00 1018 30.06 848 25.04 19.8 67.6 51 9.4 49
02:05 1019 30.09 848 25.04 19.9 67.7 50 9.4 48.9
02:10 1019 30.09 848 25.04 20 68 51 9.6 49.3
02:15 1019 30.09 848 25.04 19.9 67.9 52 9.9 49.8
02:20 1019 30.09 848 25.04 19.9 67.9 51 9.6 49.2
02:25 1019 30.09 849 25.07 20 68 52 9.9 49.8
02:30 1020 30.12 849 25.07 20 67.9 52 9.9 49.8
02:35 1020 30.12 849 25.07 19.9 67.7 56 10.9 51.6
02:40 1020 30.12 849 25.07 19.5 67.1 59 11.4 52.5
02:45 1020 30.12 850 25.1 19 66.2 61 11.4 52.6
02:50 1021 30.15 850 25.1 18.9 66.1 59 10.7 51.3
02:55 1021 30.15 850 25.1 18.9 66 65 12.3 54.1
03:00 1021 30.15 850 25.1 18.3 64.9 65 11.8 53.2
03:05 1021 30.15 850 25.1 17.9 64.2 71 12.5 54.5
03:10 1021 30.15 850 25.1 17.1 62.8 74 12.5 54.6
03:15 1021 30.15 850 25.1 16.7 62 75 12.3 54.1
03:20 1021 30.15 850 25.1 16.7 62 74 12.2 53.9
03:25 1021 30.15 850 25.1 16.6 61.9 76 12.3 54.2
03:30 1021 30.15 850 25.1 16.5 61.8 77 12.6 54.7
03:35 1021 30.15 850 25.1 16.5 61.7 79 12.9 55.1
03:40 1020 30.12 849 25.07 16.5 61.7 77 12.6 54.6
03:45 1020 30.12 849 25.07 16.6 61.8 81 13.3 55.9
03:50 1020 30.12 849 25.07 16.5 61.7 82 13.4 56.1
03:55 1020 30.12 849 25.07 16 60.9 82 13 55.4
04:00 1020 30.12 849 25.07 16 60.7 81 12.8 55
04:05 1020 30.12 849 25.07 16 60.8 84 13.3 56
04:10 1020 30.12 849 25.07 16.1 60.9 82 13.1 55.5
04:15 1020 30.12 849 25.07 16.1 61 80 12.7 54.9
04:20 1020 30.12 849 25.07 16.2 61.1 79 12.6 54.7
04:25 1020 30.12 849 25.07 16 60.8 83 13.1 55.6
04:30 1020 30.12 849 25.07 15.6 60.1 84 13 55.3
04:35 1019 30.09 849 25.07 15.5 60 82 12.6 54.6
04:40 1019 30.09 848 25.04 16 60.8 79 12.4 54.3
04:45 1019 30.09 848 25.04 16 60.7 82 12.9 55.2
04:50 1019 30.09 848 25.04 15.8 60.4 82 12.7 54.8
04:55 1019 30.09 848 25.04 15.7 60.3 81 12.6 54.6
05:00 1019 30.09 848 25.04 15.8 60.5 81 12.5 54.5
05:05 1019 30.09 848 25.04 15.8 60.4 81 12.5 54.5
05:10 1019 30.09 848 25.04 15.8 60.5 81 12.7 54.8
05:15 1019 30.09 848 25.04 15.8 60.5 80 12.4 54.4
05:20 1018 30.06 848 25.04 16.1 61 76 11.9 53.4
05:25 1018 30.06 848 25.04 16.5 61.6 74 11.9 53.4
05:30 1018 30.06 848 25.04 16.7 62.1 71 11.4 52.6
05:35 1018 30.06 847 25.01 17.2 63 68 11.3 52.4
05:40 1018 30.06 847 25.01 17.5 63.6 67 11.3 52.4
05:45 1018 30.06 847 25.01 17.7 63.8 67 11.5 52.6
05:50 1018 30.06 847 25.01 17.7 63.8 65 11.2 52.1
05:55 1018 30.06 847 25.01 18 64.3 63 10.8 51.5
06:00 1018 30.06 847 25.01 18.3 64.9 62 10.9 51.6
06:05 1018 30.06 847 25.01 18.3 65 60 10.6 51.2
06:10 1018 30.06 847 25.01 18.5 65.3 60 10.7 51.2
06:15 1018 30.06 847 25.01 18.5 65.4 60 10.8 51.4
06:20 1018 30.06 847 25.01 18.5 65.3 61 10.9 51.6
06:25 1018 30.06 847 25.01 18.5 65.3 60 10.6 51.1
06:30 1018 30.06 847 25.01 18.5 65.2 60 10.8 51.4
06:35 1018 30.06 848 25.04 18.6 65.4 59 10.6 51.1
06:40 1018 30.06 848 25.04 18.8 65.8 57 10.3 50.5
06:45 1019 30.09 848 25.04 19 66.2 56 10 50.1
06:50 1019 30.09 848 25.04 19.2 66.5 55 10.2 50.3
06:55 1019 30.09 848 25.04 19.1 66.3 56 10.1 50.2
07:00 1019 30.09 848 25.04 18.9 66.1 63 11.7 53.1
07:05 1019 30.09 848 25.04 17.9 64.2 70 12.5 54.5
07:10 1019 30.09 848 25.04 16.5 61.6 79 12.8 55
07:15 1019 30.09 848 25.04 15.7 60.2 81 12.5 54.4
07:20 1019 30.09 848 25.04 15.5 59.9 81 12.3 54.2
07:25 1019 30.09 848 25.04 15.4 59.6 82 12.3 54.1
07:30 1019 30.09 848 25.04 15.3 59.5 82 12.3 54.1
07:35 1019 30.09 848 25.04 15.3 59.6 81 12.1 53.8
07:40 1019 30.09 848 25.04 15.2 59.4 82 12.2 53.9
07:45 1019 30.09 848 25.04 15.2 59.4 82 12.1 53.8
07:50 1019 30.09 848 25.04 15.5 59.8 80 12 53.6
07:55 1019 30.09 848 25.04 15.6 60 80 12.2 53.9
08:00 1019 30.09 848 25.04 15.6 60.1 80 12.2 53.9
08:05 1019 30.09 848 25.04 15.8 60.4 79 12.2 54
08:10 1019 30.09 848 25.04 15.7 60.2 79 12.2 53.9
08:15 1019 30.09 848 25.04 15.7 60.2 80 12.2 54
08:20 1019 30.09 848 25.04 15.8 60.4 79 12.1 53.8
08:25 1019 30.09 848 25.04 15.9 60.6 78 12.1 53.7
08:30 1019 30.09 848 25.04 16.1 60.9 78 12.2 54
08:35 1019 30.09 848 25.04 16 60.9 79 12.4 54.4
08:40 1019 30.09 848 25.04 15.9 60.6 80 12.5 54.5
08:45 1019 30.09 848 25.04 15.9 60.6 79 12.3 54.1
08:50 1019 30.09 848 25.04 16 60.8 79 12.4 54.4
08:55 1019 30.09 848 25.04 16.2 61.2 80 12.8 55.1
09:00 1019 30.09 849 25.07 16.2 61.2 80 12.8 55
09:05 1020 30.12 849 25.07 16.1 60.9 81 12.9 55.2
09:10 1019 30.09 849 25.07 16.1 60.9 81 12.8 55
09:15 1019 30.09 848 25.04 16.3 61.3 79 12.7 54.9
09:20 1019 30.09 848 25.04 16.4 61.4 79 12.8 55
09:25 1019 30.09 848 25.04 16.5 61.6 77 12.5 54.5
09:30 1019 30.09 848 25.04 16.9 62.5 74 12.3 54.2
09:35 1019 30.09 848 25.04 17.8 64 69 12.2 53.9
09:40 1019 30.09 848 25.04 18.3 65 65 11.6 52.9
09:45 1019 30.09 848 25.04 18.6 65.5 63 11.5 52.6
09:50 1019 30.09 848 25.04 18.9 66.1 63 11.9 53.4
09:55 1019 30.09 848 25.04 18.9 65.9 68 12.9 55.2
10:00 1019 30.09 848 25.04 18.6 65.4 71 13.2 55.7
10:05 1019 30.09 848 25.04 18.7 65.6 68 12.8 55.1
10:10 1019 30.09 848 25.04 18.8 65.8 69 12.9 55.3
10:15 1019 30.09 848 25.04 18.9 66 66 12.4 54.4
10:20 1019 30.09 848 25.04 19.3 66.8 64 12.5 54.4
10:25 1019 30.09 848 25.04 19.7 67.4 63 12.5 54.6
10:30 1019 30.09 848 25.04 19.7 67.4 63 12.6 54.8
10:35 1019 30.09 848 25.04 19.7 67.5 66 13.4 56
10:40 1019 30.09 848 25.04 19.7 67.5 63 12.5 54.5
10:45 1019 30.09 848 25.04 19.9 67.8 61 12.2 54
10:50 1019 30.09 848 25.04 20.5 68.9 58 12.1 53.7
10:55 1019 30.09 848 25.04 20.8 69.5 57 12.1 53.8
11:00 1019 30.09 848 25.04 21.3 70.4 57 12.6 54.7
11:05 1019 30.09 848 25.04 21.5 70.6 50 10.9 51.6
11:10 1019 30.09 848 25.04 22 71.7 52 11.9 53.3
11:15 1019 30.09 848 25.04 22.3 72.1 54 12.6 54.7
11:20 1019 30.09 848 25.04 22.5 72.4 50 11.6 52.8
11:25 1019 30.09 848 25.04 22.5 72.5 51 12.1 53.8
11:30 1019 30.09 848 25.04 22.2 71.9 53 12.2 54
11:35 1019 30.09 848 25.04 22.5 72.4 48 11 51.8
11:40 1019 30.09 848 25.04 22.9 73.2 48 11.6 52.8
11:45 1019 30.09 848 25.04 23.1 73.5 49 11.9 53.4
11:50 1019 30.09 848 25.04 22.5 72.5 55 13.2 55.8
11:55 1019 30.09 848 25.04 22.2 72 44 9.4 48.9
12:00 1019 30.09 848 25.04 23.1 73.6 36 7.3 45.2
12:05 1019 30.09 848 25.04 23.6 74.4 37 8.1 46.5
12:10 1019 30.09 848 25.04 23.6 74.5 35 7.5 45.5
12:15 1019 30.09 848 25.04 23.7 74.6 35 7.6 45.7
12:20 1019 30.09 848 25.04 23.8 74.8 34 7.1 44.8
12:25 1019 30.09 848 25.04 23.5 74.3 37 8.1 46.6
12:30 1019 30.09 848 25.04 23 73.3 38 8 46.4
12:35 1019 30.09 848 25.04 22.9 73.3 35 7 44.6
12:40 1019 30.09 848 25.04 23.1 73.5 34 6.7 44
12:45 1019 30.09 848 25.04 23 73.4 35 6.9 44.4
12:50 1019 30.09 848 25.04 22.7 72.9 38 7.9 46.3
12:55 1019 30.09 849 25.07 22.3 72.2 39 7.8 46.1
13:00 1019 30.09 848 25.04 22.2 72 38 7.4 45.4
13:05 1019 30.09 848 25.04 22.3 72.1 36 6.8 44.2
13:10 1019 30.09 848 25.04 22.3 72.2 38 7.4 45.3
13:15 1019 30.09 848 25.04 22.2 72 38 7.4 45.4
13:20 1019 30.09 848 25.04 22.2 71.9 39 7.7 45.8
13:25 1019 30.09 849 25.07 22.1 71.9 40 8 46.5
13:30 1019 30.09 848 25.04 21.9 71.4 41 8.1 46.6
13:35 1019 30.09 848 25.04 21.9 71.5 40 8 46.4
13:40 1019 30.09 848 25.04 21.9 71.4 40 7.9 46.2
13:45 1019 30.09 849 25.07 21.8 71.2 42 8.6 47.5
13:50 1020 30.12 849 25.07 21.5 70.6 42 8.1 46.6
13:55 1020 30.12 849 25.07 21.6 71 39 7.2 45
14:00 1020 30.12 849 25.07 22 71.6 37 6.7 44.1
14:05 1019 30.09 849 25.07 22 71.6 35 6.2 43.2
14:10 1020 30.12 849 25.07 22.1 71.9 41 8.4 47.2
14:15 1020 30.12 849 25.07 21.1 69.9 45 8.7 47.6
14:20 1020 30.12 849 25.07 20.8 69.5 50 10.1 50.2
14:25 1020 30.12 849 25.07 19.5 67.1 57 10.9 51.6
14:30 1020 30.12 849 25.07 19.2 66.5 55 10 50.1
14:35 1020 30.12 849 25.07 19.2 66.6 54 9.9 49.8
14:40 1020 30.12 849 25.07 18.9 66 59 10.8 51.5
14:45 1020 30.12 849 25.07 18.4 65.1 59 10.5 50.9
14:50 1019 30.09 849 25.07 18.1 64.6 64 11.2 52.2
14:55 1018 30.06 848 25.04 18.3 64.9 60 10.5 50.8
15:00 1018 30.06 847 25.01 18.8 65.8 56 10 50
15:05 1018 30.06 847 25.01 19.5 67.1 52 9.6 49.3
15:10 1018 30.06 847 25.01 20.1 68.2 49 9.3 48.7
15:15 1018 30.06 847 25.01 20.7 69.3 44 8.3 46.9
15:20 1018 30.06 847 25.01 21.6 71 41 8 46.4
15:25 1018 30.06 847 25.01 22.4 72.3 41 8.6 47.5
15:30 1018 30.06 847 25.01 23.3 74 34 6.8 44.3
15:35 1018 30.06 847 25.01 23.8 74.8 33 6.6 43.9
15:40 1018 30.06 847 25.01 24 75.2 34 7.4 45.3
15:45 1018 30.06 847 25.01 24.1 75.4 32 6.6 43.9
15:50 1018 30.06 847 25.01 24.1 75.3 32 6.7 44.1
15:55 1018 30.06 847 25.01 24.1 75.4 33 6.9 44.5
16:00 1018 30.06 847 25.01 24.2 75.6 30 6 42.8
16:05 1018 30.06 847 25.01 24.3 75.7 31 6.5 43.7
16:10 1018 30.06 847 25.01 24.6 76.2 31 6.6 43.9
16:15 1017 30.03 847 25.01 24.7 76.5 31 6.7 44
16:20 1017 30.03 847 25.01 24.8 76.6 31 6.9 44.5
16:25 1017 30.03 846 24.98 25 76.9 31 6.8 44.3
16:30 1017 30.03 846 24.98 25 76.9 32 7.2 44.9
16:35 1017 30.03 846 24.98 25.3 77.5 31 7.4 45.3
16:40 1017 30.03 846 24.98 25.5 77.8 31 7.1 44.8
16:45 1017 30.03 846 24.98 25.8 78.4 30 7.1 44.7
16:50 1017 30.03 846 24.98 25.8 78.4 29 6.6 43.9
16:55 1017 30.03 846 24.98 25.8 78.4 31 7.6 45.7
17:00 1017 30.03 846 24.98 25.8 78.4 30 7.3 45.2
17:05 1016 30 846 24.98 26.3 79.3 29 7.2 45
17:10 1016 30 845 24.95 26.3 79.3 30 7.7 45.9
17:15 1016 30 845 24.95 26 78.8 29 6.8 44.2
17:20 1016 30 845 24.95 26.1 78.9 30 7.3 45.1
17:25 1016 30 845 24.95 26.1 79 30 7.3 45.2
17:30 1016 30 845 24.95 26.2 79.2 29 7.2 45
17:35 1016 30 845 24.95 26.2 79.1 29 7 44.6
17:40 1016 30 845 24.95 26.3 79.4 29 6.9 44.5
17:45 1016 30 845 24.95 26.3 79.4 29 7 44.5
17:50 1016 30 845 24.95 26.4 79.4 29 7.4 45.3
17:55 1015 29.97 845 24.95 26.3 79.3 32 8.6 47.6
18:00 1015 29.97 845 24.95 26.1 78.9 30 7.3 45.2
18:05 1015 29.97 845 24.95 25.8 78.4 32 8.2 46.7
18:10 1015 29.97 845 24.95 25.7 78.2 32 7.9 46.3
18:15 1015 29.97 845 24.95 25.5 78 34 8.5 47.4
18:20 1015 29.97 845 24.95 25.5 77.9 33 8.3 46.9
18:25 1016 30 845 24.95 25.5 77.8 31 7.4 45.4
18:30 1016 30 845 24.95 25.3 77.6 33 7.9 46.3
18:35 1016 30 845 24.95 25.1 77.2 33 8.1 46.6
18:40 1016 30 845 24.95 25.1 77.1 34 8.2 46.7
18:45 1016 30 845 24.95 24.9 76.9 33 8 46.3
18:50 1016 30 845 24.95 24.8 76.6 34 8.3 46.9
18:55 1016 30 845 24.95 24.5 76.1 35 8.4 47.1
19:00 1016 30 845 24.95 24.2 75.5 37 8.7 47.6
19:05 1016 30 845 24.95 23.9 75.1 38 9 48.2
19:10 1016 30 845 24.95 23.5 74.2 40 9.3 48.7
19:15 1016 30 845 24.95 23.1 73.5 42 9.6 49.2
19:20 1016 30 846 24.98 22.8 73.1 41 9.1 48.5
19:25 1016 30 846 24.98 23 73.3 41 9.2 48.5
19:30 1016 30 846 24.98 22.8 73.1 42 9.3 48.8
19:35 1017 30.03 846 24.98 22.7 72.9 42 9.5 49
19:40 1017 30.03 846 24.98 22.9 73.3 41 9.2 48.5
19:45 1017 30.03 846 24.98 23 73.4 41 9.3 48.7
19:50 1017 30.03 846 24.98 22.8 73 42 9.4 48.9
19:55 1017 30.03 846 24.98 22.7 72.8 45 10.3 50.6
20:00 1017 30.03 846 24.98 22.3 72.1 46 10.3 50.5
20:05 1017 30.03 846 24.98 21.9 71.5 47 10.3 50.6
20:10 1017 30.03 846 24.98 21.9 71.4 44 9.4 48.9
20:15 1017 30.03 846 24.98 22.3 72.1 39 7.9 46.1
20:20 1017 30.03 846 24.98 22.6 72.7 38 7.9 46.3
20:25 1017 30.03 846 24.98 23 73.3 34 6.4 43.5
20:30 1017 30.03 846 24.98 22.9 73.2 35 6.8 44.3
20:35 1017 30.03 846 24.98 22.6 72.6 37 7.3 45.1
20:40 1017 30.03 846 24.98 22.4 72.3 37 7.2 45
20:45 1017 30.03 846 24.98 22.4 72.2 37 7.1 44.7
20:50 1017 30.03 846 24.98 22.5 72.4 33 5.8 42.4
20:55 1017 30.03 847 25.01 22.5 72.5 34 5.9 42.6
21:00 1017 30.03 847 25.01 22.3 72.2 35 6.3 43.3
21:05 1017 30.03 847 25.01 22.1 71.8 35 6 42.8
21:10 1017 30.03 847 25.01 22 71.6 35 6.1 43
21:15 1017 30.03 846 24.98 21.9 71.4 35 6.1 43
21:20 1017 30.03 846 24.98 21.8 71.2 36 6.3 43.4
21:25 1017 30.03 846 24.98 21.5 70.7 37 6.5 43.7
21:30 1017 30.03 846 24.98 21.6 71 36 6.2 43.2
21:35 1017 30.03 846 24.98 21.6 70.8 38 6.6 43.9
21:40 1017 30.03 846 24.98 21.6 70.8 35 5.5 41.9
21:45 1017 30.03 846 24.98 21.9 71.4 34 5.5 41.8
21:50 1016 30 846 24.98 22.2 71.9 33 5.3 41.5
21:55 1016 30 845 24.95 22.4 72.2 34 6 42.7
22:00 1016 30 846 24.98 22.3 72.2 33 5.4 41.7
22:05 1016 30 846 24.98 22.3 72.2 32 5.2 41.3
22:10 1016 30 846 24.98 22.5 72.5 33 5.6 42.1
22:15 1016 30 846 24.98 22.6 72.7 28 3.6 38.4
22:20 1016 30 846 24.98 23.7 74.6 27 3.8 38.8
22:25 1017 30.03 846 24.98 23.7 74.6 30 5 41.1
22:30 1017 30.03 846 24.98 23.1 73.5 31 5.1 41.2
22:35 1017 30.03 846 24.98 22.7 72.8 31 5.1 41.1
22:40 1017 30.03 846 24.98 22.6 72.6 32 5.2 41.3
22:45 1017 30.03 846 24.98 22.3 72.1 33 5.3 41.6
22:50 1017 30.03 846 24.98 22 71.6 34 5.6 42.1
22:55 1017 30.03 846 24.98 22.1 71.7 38 7.2 45
23:00 1017 30.03 847 25.01 21.8 71.2 33 5.1 41.1
23:05 1017 30.03 847 25.01 22.1 71.9 32 4.8 40.7
23:10 1017 30.03 847 25.01 22.5 72.5 32 5.1 41.2
23:15 1017 30.03 847 25.01 22.5 72.5 33 5.4 41.7
23:20 1017 30.03 847 25.01 21.9 71.5 35 5.8 42.4
23:25 1018 30.06 847 25.01 21.3 70.4 36 5.9 42.7
23:30 1018 30.06 847 25.01 21.1 70 38 6.3 43.3
23:35 1018 30.06 847 25.01 21 69.9 40 7 44.5
23:40 1018 30.06 847 25.01 20.8 69.4 40 7 44.7
23:45 1018 30.06 847 25.01 20.7 69.3 41 7.1 44.8
23:50 1018 30.06 847 25.01 20.6 69.1 41 7 44.6
23:55 1017 30.03 847 25.01 20.6 69.1 41 7.1 44.8
24:00 1017 30.03 846 24.98 20.5 69 42 7.2 45